Time;durP1;ratioP1;P1;durP2;ratioP2;P2;SDS_P1;SDS_P2;PMS_P1;PMS_P2;Temp;Humidity;BMP_temperature;BMP_pressure;BME280_temperature;BME280_humidity;BME280_pressure;Samples;Min_cycle;Max_cycle;Signal;HPM_P1;HPM_P2
2023/04/06 00:01:38;;;;;;;0.05;0.00;;;;;;;;;;5054951;28;20333;-91
2023/04/06 00:04:04;;;;;;;0.00;0.00;;;;;;;;;;5054682;28;20036;-90
2023/04/06 00:06:31;;;;;;;0.00;0.00;;;;;;;;;;5071259;28;20040;-91
2023/04/06 00:08:57;;;;;;;0.00;0.00;;;;;;;;;;5054603;28;20079;-90
2023/04/06 00:11:23;;;;;;;0.00;0.00;;;;;;;;;;5072014;28;20410;-90
2023/04/06 00:13:49;;;;;;;0.40;0.03;;;;;;;;;;5055143;28;20044;-89
2023/04/06 00:16:15;;;;;;;0.00;0.00;;;;;;;;;;5071098;28;20037;-89
2023/04/06 00:18:41;;;;;;;0.00;0.00;;;;;;;;;;5071543;28;20043;-90
2023/04/06 00:21:07;;;;;;;0.00;0.00;;;;;;;;;;5055994;28;20075;-91
2023/04/06 00:23:34;;;;;;;0.00;0.00;;;;;;;;;;5054709;28;20037;-91
2023/04/06 00:26:00;;;;;;;0.20;0.00;;;;;;;;;;5054404;28;20464;-90
2023/04/06 00:28:26;;;;;;;0.00;0.00;;;;;;;;;;5071139;28;20044;-90
2023/04/06 00:30:55;;;;;;;0.00;0.00;;;;;;;;;;5072264;28;20044;-90
2023/04/06 00:33:21;;;;;;;0.00;0.00;;;;;;;;;;5054528;28;20652;-89
2023/04/06 00:35:47;;;;;;;0.00;0.00;;;;;;;;;;5054025;28;20407;-89
2023/04/06 00:38:14;;;;;;;0.00;0.00;;;;;;;;;;5054284;28;20033;-90
2023/04/06 00:40:40;;;;;;;0.32;0.08;;;;;;;;;;5071187;28;20040;-90
2023/04/06 00:43:07;;;;;;;0.00;0.00;;;;;;;;;;5054412;28;20370;-90
2023/04/06 00:45:33;;;;;;;0.00;0.00;;;;;;;;;;5071267;28;20391;-90
2023/04/06 00:47:59;;;;;;;0.00;0.00;;;;;;;;;;5057070;28;20047;-90
2023/04/06 00:50:26;;;;;;;0.00;0.00;;;;;;;;;;5058399;28;20134;-90
2023/04/06 00:52:52;;;;;;;0.00;0.00;;;;;;;;;;5074871;28;20053;-91
2023/04/06 00:55:18;;;;;;;0.00;0.00;;;;;;;;;;5058169;28;20348;-90
2023/04/06 00:57:44;;;;;;;0.00;0.00;;;;;;;;;;5074750;28;20043;-90
2023/04/06 01:00:11;;;;;;;0.00;0.00;;;;;;;;;;5075431;28;20043;-90
2023/04/06 01:02:37;;;;;;;0.00;0.00;;;;;;;;;;5074550;28;20036;-89
2023/04/06 01:05:03;;;;;;;0.00;0.00;;;;;;;;;;5058049;28;20485;-89
2023/04/06 01:07:29;;;;;;;0.25;0.20;;;;;;;;;;5074910;28;20478;-90
2023/04/06 01:09:55;;;;;;;0.00;0.00;;;;;;;;;;5058329;28;20494;-90
2023/04/06 01:12:21;;;;;;;0.00;0.00;;;;;;;;;;5057899;28;20144;-91
2023/04/06 01:14:47;;;;;;;0.00;0.00;;;;;;;;;;5074969;28;20405;-90
2023/04/06 01:17:13;;;;;;;0.00;0.00;;;;;;;;;;5074465;28;20441;-91
2023/04/06 01:19:40;;;;;;;0.00;0.00;;;;;;;;;;5057972;28;20037;-90
2023/04/06 01:22:06;;;;;;;0.00;0.00;;;;;;;;;;5057792;28;20036;-91
2023/04/06 01:24:33;;;;;;;0.00;0.00;;;;;;;;;;5075000;28;20083;-90
2023/04/06 01:26:59;;;;;;;0.00;0.00;;;;;;;;;;5057711;28;20422;-90
2023/04/06 01:29:25;;;;;;;0.00;0.00;;;;;;;;;;5074749;28;20043;-90
2023/04/06 01:31:51;;;;;;;0.00;0.00;;;;;;;;;;5057510;28;20090;-89
2023/04/06 01:34:17;;;;;;;0.00;0.00;;;;;;;;;;5057612;28;20044;-90
2023/04/06 01:36:43;;;;;;;0.00;0.00;;;;;;;;;;5057485;28;20041;-90
2023/04/06 01:39:09;;;;;;;0.00;0.00;;;;;;;;;;5057827;28;20528;-89
2023/04/06 01:41:35;;;;;;;0.00;0.00;;;;;;;;;;5057637;28;20197;-89
2023/04/06 01:44:01;;;;;;;0.00;0.00;;;;;;;;;;5057534;28;20453;-90
2023/04/06 01:46:28;;;;;;;0.00;0.00;;;;;;;;;;5057104;28;20040;-89
2023/04/06 01:48:54;;;;;;;0.00;0.00;;;;;;;;;;5074267;28;20037;-90
2023/04/06 01:51:20;;;;;;;0.20;0.00;;;;;;;;;;5057208;28;20593;-90
2023/04/06 01:53:46;;;;;;;0.00;0.00;;;;;;;;;;5073578;28;20139;-90
2023/04/06 01:56:12;;;;;;;0.00;0.00;;;;;;;;;;5073834;28;20326;-89
2023/04/06 01:58:38;;;;;;;0.00;0.00;;;;;;;;;;5072742;28;20074;-89
2023/04/06 02:01:04;;;;;;;0.00;0.00;;;;;;;;;;5057179;28;20040;-90
2023/04/06 02:03:31;;;;;;;0.00;0.00;;;;;;;;;;5073515;28;20072;-89
2023/04/06 02:05:57;;;;;;;0.00;0.00;;;;;;;;;;5057216;28;20041;-90
2023/04/06 02:08:23;;;;;;;0.00;0.00;;;;;;;;;;5073563;28;20044;-89
2023/04/06 02:10:49;;;;;;;0.00;0.00;;;;;;;;;;5056942;28;20050;-90
2023/04/06 02:13:15;;;;;;;0.00;0.00;;;;;;;;;;5073381;28;20113;-90
2023/04/06 02:15:41;;;;;;;0.00;0.00;;;;;;;;;;5056934;28;20047;-90
2023/04/06 02:18:07;;;;;;;0.00;0.00;;;;;;;;;;5073170;28;20072;-89
2023/04/06 02:20:33;;;;;;;0.00;0.00;;;;;;;;;;5073452;28;20043;-89
2023/04/06 02:23:00;;;;;;;0.00;0.00;;;;;;;;;;5056896;28;20119;-89
2023/04/06 02:25:26;;;;;;;0.00;0.00;;;;;;;;;;5056693;28;20407;-89
2023/04/06 02:27:52;;;;;;;0.00;0.00;;;;;;;;;;5056245;28;20460;-89
2023/04/06 02:30:18;;;;;;;0.00;0.00;;;;;;;;;;5073453;28;20048;-89
2023/04/06 02:32:44;;;;;;;0.00;0.00;;;;;;;;;;5072997;28;20090;-90
2023/04/06 02:35:10;;;;;;;0.00;0.00;;;;;;;;;;5073319;28;20052;-90
2023/04/06 02:37:36;;;;;;;0.00;0.00;;;;;;;;;;5056314;28;20148;-90
2023/04/06 02:40:02;;;;;;;0.00;0.00;;;;;;;;;;5056750;28;20040;-90
2023/04/06 02:42:29;;;;;;;0.00;0.00;;;;;;;;;;5072634;28;20040;-90
2023/04/06 02:44:55;;;;;;;0.00;0.00;;;;;;;;;;5072942;28;20090;-89
2023/04/06 02:47:21;;;;;;;0.00;0.00;;;;;;;;;;5072520;28;20040;-90
2023/04/06 02:49:47;;;;;;;0.00;0.00;;;;;;;;;;5072715;28;20058;-90
2023/04/06 02:52:13;;;;;;;0.00;0.00;;;;;;;;;;5072506;28;20040;-91
2023/04/06 02:54:39;;;;;;;0.00;0.00;;;;;;;;;;5072854;28;20055;-90
2023/04/06 02:57:05;;;;;;;0.00;0.00;;;;;;;;;;5055906;28;20127;-89
2023/04/06 02:59:31;;;;;;;0.00;0.00;;;;;;;;;;5072716;28;20174;-90
2023/04/06 03:01:57;;;;;;;0.00;0.00;;;;;;;;;;5055912;28;20502;-90
2023/04/06 03:04:25;;;;;;;0.00;0.00;;;;;;;;;;5055278;28;20047;-89
2023/04/06 03:06:51;;;;;;;0.00;0.00;;;;;;;;;;5055765;28;20074;-90
2023/04/06 03:09:17;;;;;;;0.00;0.00;;;;;;;;;;5072202;28;20044;-89
2023/04/06 03:11:43;;;;;;;0.00;0.00;;;;;;;;;;5055984;28;20452;-90
2023/04/06 03:14:09;;;;;;;0.00;0.00;;;;;;;;;;5055312;28;20047;-88
2023/04/06 03:16:35;;;;;;;0.00;0.00;;;;;;;;;;5055260;28;20127;-90
2023/04/06 03:19:01;;;;;;;0.00;0.00;;;;;;;;;;5055112;28;20044;-89
2023/04/06 03:21:27;;;;;;;0.00;0.00;;;;;;;;;;5055458;28;20040;-89
2023/04/06 03:23:53;;;;;;;0.00;0.00;;;;;;;;;;5072075;28;20052;-89
2023/04/06 03:26:19;;;;;;;0.00;0.00;;;;;;;;;;5055132;28;20072;-89
2023/04/06 03:28:45;;;;;;;0.70;0.55;;;;;;;;;;5055068;28;20438;-90
2023/04/06 03:31:11;;;;;;;0.43;0.43;;;;;;;;;;5071810;28;20101;-89
2023/04/06 03:33:37;;;;;;;0.00;0.00;;;;;;;;;;5055099;28;20044;-89
2023/04/06 03:36:03;;;;;;;0.00;0.00;;;;;;;;;;5072056;28;20045;-91
2023/04/06 03:38:29;;;;;;;0.03;0.03;;;;;;;;;;5054876;28;20494;-90
2023/04/06 03:40:55;;;;;;;0.00;0.00;;;;;;;;;;5055146;28;20120;-90
2023/04/06 03:43:21;;;;;;;0.00;0.00;;;;;;;;;;5054756;28;20131;-89
2023/04/06 03:45:47;;;;;;;0.00;0.00;;;;;;;;;;5055352;28;20391;-91
2023/04/06 03:48:13;;;;;;;0.00;0.00;;;;;;;;;;5054919;28;20101;-90
2023/04/06 03:50:39;;;;;;;0.00;0.00;;;;;;;;;;5071803;28;20404;-90
2023/04/06 03:53:05;;;;;;;0.00;0.00;;;;;;;;;;5070976;28;20092;-89
2023/04/06 03:55:31;;;;;;;0.00;0.00;;;;;;;;;;5055090;28;20080;-89
2023/04/06 03:57:57;;;;;;;0.00;0.00;;;;;;;;;;5054739;28;20098;-89
2023/04/06 04:00:23;;;;;;;0.00;0.00;;;;;;;;;;5054816;28;20032;-89
2023/04/06 04:02:49;;;;;;;0.00;0.00;;;;;;;;;;5054424;28;20043;-90
2023/04/06 04:05:15;;;;;;;0.00;0.00;;;;;;;;;;5071860;28;20044;-90
2023/04/06 04:07:41;;;;;;;0.00;0.00;;;;;;;;;;5071244;28;20129;-90
2023/04/06 04:10:08;;;;;;;0.00;0.00;;;;;;;;;;5054520;28;20044;-89
2023/04/06 04:12:34;;;;;;;0.00;0.00;;;;;;;;;;5054750;28;20036;-88
2023/04/06 04:14:59;;;;;;;0.30;0.13;;;;;;;;;;5071137;28;20476;-89
2023/04/06 04:17:25;;;;;;;0.00;0.00;;;;;;;;;;5054575;28;20075;-89
2023/04/06 04:19:51;;;;;;;0.10;0.00;;;;;;;;;;5070918;28;20464;-89
2023/04/06 04:22:17;;;;;;;0.00;0.00;;;;;;;;;;5053787;28;20045;-89
2023/04/06 04:24:43;;;;;;;0.00;0.00;;;;;;;;;;5054407;28;20040;-90
2023/04/06 04:27:09;;;;;;;0.05;0.03;;;;;;;;;;5071284;28;20044;-89
2023/04/06 04:29:35;;;;;;;0.10;0.05;;;;;;;;;;5054542;28;20086;-90
2023/04/06 04:32:01;;;;;;;0.00;0.00;;;;;;;;;;5071257;28;20484;-90
2023/04/06 04:34:28;;;;;;;0.00;0.00;;;;;;;;;;5054838;28;20049;-91
2023/04/06 04:36:57;;;;;;;0.00;0.00;;;;;;;;;;5054999;28;20127;-91
2023/04/06 04:39:23;;;;;;;0.00;0.00;;;;;;;;;;5054712;28;20045;-90
2023/04/06 04:41:49;;;;;;;0.00;0.00;;;;;;;;;;5071828;28;20502;-90
2023/04/06 04:44:15;;;;;;;0.00;0.00;;;;;;;;;;5055233;28;20032;-90
2023/04/06 04:46:41;;;;;;;0.00;0.00;;;;;;;;;;5054995;28;20048;-91
2023/04/06 04:49:07;;;;;;;0.00;0.00;;;;;;;;;;5071585;28;20054;-90
2023/04/06 04:51:36;;;;;;;0.00;0.00;;;;;;;;;;5055287;28;20154;-91
2023/04/06 04:54:02;;;;;;;0.00;0.00;;;;;;;;;;5070691;28;20064;-90
2023/04/06 04:56:29;;;;;;;0.00;0.00;;;;;;;;;;5054550;28;20498;-90
2023/04/06 04:58:55;;;;;;;0.00;0.00;;;;;;;;;;5072099;28;20043;-94
2023/04/06 05:01:21;;;;;;;0.00;0.00;;;;;;;;;;5072910;28;20472;-90
2023/04/06 05:03:47;;;;;;;0.00;0.00;;;;;;;;;;5070991;28;20037;-91
2023/04/06 05:06:13;;;;;;;0.00;0.00;;;;;;;;;;5054734;28;20186;-90
2023/04/06 05:08:39;;;;;;;0.00;0.00;;;;;;;;;;5054494;28;20040;-92
2023/04/06 05:11:05;;;;;;;0.98;0.13;;;;;;;;;;5071651;28;20059;-90
2023/04/06 05:13:31;;;;;;;0.43;0.43;;;;;;;;;;5071870;28;20037;-91
2023/04/06 05:15:57;;;;;;;0.00;0.00;;;;;;;;;;5056580;28;20055;-91
2023/04/06 05:18:23;;;;;;;0.20;0.13;;;;;;;;;;5072782;28;20041;-90
2023/04/06 05:20:51;;;;;;;0.00;0.00;;;;;;;;;;5055268;28;20036;-90
2023/04/06 05:23:17;;;;;;;0.65;0.45;;;;;;;;;;5071294;28;20040;-90
2023/04/06 05:25:43;;;;;;;0.00;0.00;;;;;;;;;;5071354;28;20044;-91
2023/04/06 05:28:09;;;;;;;0.00;0.00;;;;;;;;;;5054907;28;20040;-90
2023/04/06 05:30:36;;;;;;;0.32;0.00;;;;;;;;;;5054368;28;20048;-90
2023/04/06 05:33:02;;;;;;;0.00;0.00;;;;;;;;;;5054389;28;20048;-91
2023/04/06 05:35:28;;;;;;;0.00;0.00;;;;;;;;;;5074306;28;20040;-91
2023/04/06 05:37:54;;;;;;;0.00;0.00;;;;;;;;;;5058154;28;20094;-90
2023/04/06 05:40:20;;;;;;;0.00;0.00;;;;;;;;;;5057967;28;20048;-91
2023/04/06 05:42:46;;;;;;;0.10;0.03;;;;;;;;;;5074660;28;20037;-90
2023/04/06 05:45:16;;;;;;;0.00;0.00;;;;;;;;;;5057939;28;20040;-90
2023/04/06 05:47:43;;;;;;;0.08;0.08;;;;;;;;;;5058027;28;20087;-91
2023/04/06 05:50:10;;;;;;;0.00;0.00;;;;;;;;;;5074346;28;20037;-92
2023/04/06 05:52:36;;;;;;;0.00;0.00;;;;;;;;;;5072837;28;20075;-91
2023/04/06 05:55:02;;;;;;;0.00;0.00;;;;;;;;;;5021482;28;20041;-91
2023/04/06 05:57:28;;;;;;;0.00;0.00;;;;;;;;;;5021203;28;20036;-90
2023/04/06 05:59:55;;;;;;;0.00;0.00;;;;;;;;;;5037895;28;20056;-89
2023/04/06 06:02:21;;;;;;;0.00;0.00;;;;;;;;;;5020997;28;20041;-89
2023/04/06 06:04:47;;;;;;;0.00;0.00;;;;;;;;;;5021102;28;20041;-92
2023/04/06 06:07:14;;;;;;;0.00;0.00;;;;;;;;;;5021606;28;20049;-91
2023/04/06 06:09:40;;;;;;;0.00;0.00;;;;;;;;;;5020902;28;20550;-91
2023/04/06 06:12:06;;;;;;;0.00;0.00;;;;;;;;;;5021386;28;20484;-91
2023/04/06 06:14:32;;;;;;;0.00;0.00;;;;;;;;;;5021150;28;20045;-91
2023/04/06 06:16:58;;;;;;;0.00;0.00;;;;;;;;;;5037643;28;20456;-90
2023/04/06 06:19:24;;;;;;;0.00;0.00;;;;;;;;;;5037727;28;20059;-92
2023/04/06 06:21:50;;;;;;;0.00;0.00;;;;;;;;;;5021582;28;20102;-91
2023/04/06 06:24:16;;;;;;;0.00;0.00;;;;;;;;;;5020856;28;20123;-90
2023/04/06 06:26:42;;;;;;;0.00;0.00;;;;;;;;;;5021139;28;20067;-91
2023/04/06 06:29:08;;;;;;;0.00;0.00;;;;;;;;;;5037879;28;20075;-92
2023/04/06 06:31:35;;;;;;;0.00;0.00;;;;;;;;;;5021245;28;20049;-92
2023/04/06 06:34:01;;;;;;;0.00;0.00;;;;;;;;;;5021101;28;20450;-91
2023/04/06 06:36:28;;;;;;;0.10;0.03;;;;;;;;;;5020379;28;20392;-91
2023/04/06 06:38:54;;;;;;;0.00;0.00;;;;;;;;;;5036999;28;20037;-92
2023/04/06 06:41:20;;;;;;;0.17;0.10;;;;;;;;;;5020448;28;20037;-92
2023/04/06 06:43:46;;;;;;;0.00;0.00;;;;;;;;;;5021021;28;20384;-92
2023/04/06 06:46:12;;;;;;;0.00;0.00;;;;;;;;;;5036655;28;20053;-92
2023/04/06 06:48:38;;;;;;;0.10;0.10;;;;;;;;;;5020755;28;20040;-92
2023/04/06 06:51:04;;;;;;;0.10;0.05;;;;;;;;;;5020717;28;20426;-92
2023/04/06 06:53:30;;;;;;;0.00;0.00;;;;;;;;;;5035594;28;20063;-91
2023/04/06 06:55:56;;;;;;;0.00;0.00;;;;;;;;;;5073286;28;20096;-93
2023/04/06 06:58:22;;;;;;;0.00;0.00;;;;;;;;;;5056533;28;20080;-92
2023/04/06 07:00:51;;;;;;;0.00;0.00;;;;;;;;;;5056446;28;20039;-94
2023/04/06 07:03:17;;;;;;;1.65;0.98;;;;;;;;;;5056778;28;20051;-90
2023/04/06 07:05:53;;;;;;;0.00;0.00;;;;;;;;;;5056804;28;20135;-94
2023/04/06 07:08:19;;;;;;;0.00;0.00;;;;;;;;;;5056794;28;20040;-93
2023/04/06 07:10:45;;;;;;;0.00;0.00;;;;;;;;;;5056755;28;20044;-92
2023/04/06 07:13:12;;;;;;;0.15;0.00;;;;;;;;;;5056547;28;20139;-92
2023/04/06 07:15:41;;;;;;;0.00;0.00;;;;;;;;;;5056611;28;20040;-92
2023/04/06 07:18:07;;;;;;;0.20;0.10;;;;;;;;;;5056384;28;20468;-92
2023/04/06 07:20:33;;;;;;;0.00;0.00;;;;;;;;;;5056230;28;20048;-93
2023/04/06 07:22:59;;;;;;;0.10;0.00;;;;;;;;;;5072897;28;20036;-93
2023/04/06 07:25:25;;;;;;;0.10;0.10;;;;;;;;;;5056283;28;20037;-93
2023/04/06 07:27:51;;;;;;;0.00;0.00;;;;;;;;;;5073205;28;20089;-92
2023/04/06 07:30:18;;;;;;;0.00;0.00;;;;;;;;;;5056189;28;20044;-92
2023/04/06 07:32:45;;;;;;;0.20;0.00;;;;;;;;;;5056239;28;20044;-92
2023/04/06 07:35:11;;;;;;;0.03;0.00;;;;;;;;;;5056116;28;20427;-91
2023/04/06 07:37:37;;;;;;;0.00;0.00;;;;;;;;;;5055965;28;20562;-91
2023/04/06 07:40:03;;;;;;;0.00;0.00;;;;;;;;;;5072615;28;20051;-91
2023/04/06 07:42:29;;;;;;;0.20;0.08;;;;;;;;;;5056132;28;20414;-91
2023/04/06 07:44:55;;;;;;;0.00;0.00;;;;;;;;;;5055599;28;20054;-92
2023/04/06 07:47:21;;;;;;;0.00;0.00;;;;;;;;;;5072517;28;20047;-92
2023/04/06 07:49:47;;;;;;;0.00;0.00;;;;;;;;;;5056109;28;20043;-93
2023/04/06 07:52:13;;;;;;;0.95;0.95;;;;;;;;;;5072051;28;20101;-91
2023/04/06 07:54:41;;;;;;;0.00;0.00;;;;;;;;;;5072416;28;20127;-93
2023/04/06 07:57:07;;;;;;;0.10;0.00;;;;;;;;;;5055256;28;20044;-94
2023/04/06 07:59:33;;;;;;;0.00;0.00;;;;;;;;;;5055522;28;20043;-92
2023/04/06 08:02:00;;;;;;;0.00;0.00;;;;;;;;;;5055417;28;20120;-92
2023/04/06 08:04:26;;;;;;;0.47;0.10;;;;;;;;;;5055832;28;20033;-93
2023/04/06 08:06:52;;;;;;;0.93;0.17;;;;;;;;;;5072125;28;20044;-91
2023/04/06 08:09:18;;;;;;;0.10;0.10;;;;;;;;;;5055868;28;20046;-92
2023/04/06 08:11:45;;;;;;;0.00;0.00;;;;;;;;;;5055328;28;20040;-91
2023/04/06 08:14:11;;;;;;;0.00;0.00;;;;;;;;;;5055423;28;20493;-92
2023/04/06 08:16:40;;;;;;;0.00;0.00;;;;;;;;;;5055297;28;20040;-92
2023/04/06 08:19:09;;;;;;;0.00;0.00;;;;;;;;;;5072121;28;20109;-92
2023/04/06 08:21:39;;;;;;;0.00;0.00;;;;;;;;;;5055166;28;20048;-93
2023/04/06 08:24:06;;;;;;;0.25;0.25;;;;;;;;;;5056632;28;20063;-94
2023/04/06 08:26:32;;;;;;;0.22;0.00;;;;;;;;;;5052822;28;20040;-93
2023/04/06 08:28:58;;;;;;;0.55;0.10;;;;;;;;;;5048250;28;20549;-95
2023/04/06 08:31:24;;;;;;;0.00;0.00;;;;;;;;;;5051752;28;20074;-93
2023/04/06 08:33:53;;;;;;;0.00;0.00;;;;;;;;;;5051894;28;20040;-94
2023/04/06 08:36:22;;;;;;;0.00;0.00;;;;;;;;;;5052087;28;20040;-92
2023/04/06 08:38:49;;;;;;;0.00;0.00;;;;;;;;;;5035741;28;20036;-94
2023/04/06 08:41:19;;;;;;;0.20;0.10;;;;;;;;;;5052094;28;20040;-94
2023/04/06 08:43:49;;;;;;;0.00;0.00;;;;;;;;;;5051557;28;20080;-93
2023/04/06 08:46:15;;;;;;;0.05;0.00;;;;;;;;;;5051708;28;20431;-93
2023/04/06 08:48:42;;;;;;;0.00;0.00;;;;;;;;;;5051599;28;20060;-93
2023/04/06 08:51:12;;;;;;;0.00;0.00;;;;;;;;;;5051865;28;20079;-94
2023/04/06 08:53:42;;;;;;;0.00;0.00;;;;;;;;;;5051860;28;20052;-93
2023/04/06 08:56:10;;;;;;;0.38;0.00;;;;;;;;;;5051667;28;20045;-93
2023/04/06 08:58:37;;;;;;;0.00;0.00;;;;;;;;;;5037156;28;20076;-94
2023/04/06 09:01:15;;;;;;;0.00;0.00;;;;;;;;;;5051393;28;20033;-93
2023/04/06 09:03:42;;;;;;;0.20;0.15;;;;;;;;;;5034803;28;20071;-93
2023/04/06 09:06:09;;;;;;;0.00;0.00;;;;;;;;;;5052009;28;20082;-94
2023/04/06 09:08:35;;;;;;;0.00;0.00;;;;;;;;;;5054195;28;20068;-93
2023/04/06 09:11:04;;;;;;;0.00;0.00;;;;;;;;;;5055522;28;20045;-92
2023/04/06 09:13:31;;;;;;;0.00;0.00;;;;;;;;;;5055535;28;20099;-92
2023/04/06 09:16:04;;;;;;;0.00;0.00;;;;;;;;;;5055143;28;20037;-92
2023/04/06 09:18:31;;;;;;;0.00;0.00;;;;;;;;;;5039124;28;20037;-93
2023/04/06 09:20:58;;;;;;;0.10;0.03;;;;;;;;;;5055642;28;20041;-93
2023/04/06 09:23:24;;;;;;;7.13;0.35;;;;;;;;;;5055365;28;20040;-93
2023/04/06 09:25:50;;;;;;;0.00;0.00;;;;;;;;;;5055739;28;20400;-92
2023/04/06 09:28:19;;;;;;;0.38;0.38;;;;;;;;;;5055242;28;20047;-92
2023/04/06 09:30:52;;;;;;;0.35;0.13;;;;;;;;;;5055640;28;20048;-93
2023/04/06 09:33:24;;;;;;;0.00;0.00;;;;;;;;;;5055483;28;20060;-92
2023/04/06 09:35:50;;;;;;;0.00;0.00;;;;;;;;;;5054647;28;20060;-89
2023/04/06 09:38:16;;;;;;;0.00;0.00;;;;;;;;;;5054487;28;20082;-89
2023/04/06 09:40:52;;;;;;;0.43;0.15;;;;;;;;;;5054782;28;20391;-90
2023/04/06 09:43:25;;;;;;;0.00;0.00;;;;;;;;;;5054785;28;20044;-91
2023/04/06 09:45:51;;;;;;;0.00;0.00;;;;;;;;;;5038357;28;20056;-90
2023/04/06 09:48:18;;;;;;;0.00;0.00;;;;;;;;;;5054577;28;20051;-90
2023/04/06 09:50:44;;;;;;;0.00;0.00;;;;;;;;;;5054508;28;20055;-91
2023/04/06 09:53:10;;;;;;;0.00;0.00;;;;;;;;;;5054191;28;20148;-90
2023/04/06 09:55:40;;;;;;;0.00;0.00;;;;;;;;;;5053524;28;20049;-92
2023/04/06 09:58:07;;;;;;;0.08;0.03;;;;;;;;;;5053335;28;20048;-91
2023/04/06 10:00:35;;;;;;;0.20;0.00;;;;;;;;;;5053490;28;20044;-90
2023/04/06 10:03:04;;;;;;;0.00;0.00;;;;;;;;;;5053195;28;20438;-91
2023/04/06 10:05:41;;;;;;;0.00;0.00;;;;;;;;;;5053777;28;20037;-92
2023/04/06 10:08:09;;;;;;;2.60;0.65;;;;;;;;;;5053572;28;20051;-89
2023/04/06 10:10:36;;;;;;;0.75;0.75;;;;;;;;;;5037078;28;20068;-90
2023/04/06 10:13:02;;;;;;;0.00;0.00;;;;;;;;;;5053325;28;20037;-90
2023/04/06 10:15:32;;;;;;;0.20;0.05;;;;;;;;;;5052904;28;20470;-90
2023/04/06 10:18:01;;;;;;;1.48;0.32;;;;;;;;;;5053087;28;20051;-90
2023/04/06 10:20:27;;;;;;;0.00;0.00;;;;;;;;;;5052324;28;20472;-90
2023/04/06 10:23:04;;;;;;;0.00;0.00;;;;;;;;;;5052844;28;20033;-89
2023/04/06 10:25:31;;;;;;;0.00;0.00;;;;;;;;;;5036409;28;20037;-90
2023/04/06 10:28:07;;;;;;;0.00;0.00;;;;;;;;;;5053088;28;20037;-89
2023/04/06 10:30:34;;;;;;;0.65;0.05;;;;;;;;;;5053117;28;20040;-89
2023/04/06 10:33:00;;;;;;;0.20;0.20;;;;;;;;;;5055044;28;20036;-89
2023/04/06 10:35:47;;;;;;;0.00;0.00;;;;;;;;;;5052312;28;20090;-89
2023/04/06 10:38:14;;;;;;;0.00;0.00;;;;;;;;;;5052953;28;20043;-91
2023/04/06 10:40:41;;;;;;;0.00;0.00;;;;;;;;;;5020326;28;20099;-89
2023/04/06 10:43:11;;;;;;;0.17;0.17;;;;;;;;;;5052218;28;20032;-88
2023/04/06 10:45:37;;;;;;;0.00;0.00;;;;;;;;;;5035841;28;20049;-89
2023/04/06 10:48:19;;;;;;;0.10;0.00;;;;;;;;;;5035810;28;20311;-89
2023/04/06 10:50:47;;;;;;;0.00;0.00;;;;;;;;;;5052313;28;20079;-89
2023/04/06 10:53:24;;;;;;;0.20;0.10;;;;;;;;;;5014559;28;1080404;-88
2023/04/06 10:55:51;;;;;;;0.30;0.30;;;;;;;;;;5037286;28;20431;-89
2023/04/06 10:58:17;;;;;;;0.05;0.00;;;;;;;;;;5053199;28;20048;-89
2023/04/06 11:00:50;;;;;;;0.28;0.15;;;;;;;;;;5053793;28;20071;-88
2023/04/06 11:03:17;;;;;;;0.00;0.00;;;;;;;;;;5036879;28;20044;-89
2023/04/06 11:05:47;;;;;;;0.00;0.00;;;;;;;;;;5053828;28;20074;-89
2023/04/06 11:08:26;;;;;;;0.00;0.00;;;;;;;;;;5034569;28;20041;-88
2023/04/06 11:10:52;;;;;;;0.22;0.10;;;;;;;;;;5053744;28;20056;-89
2023/04/06 11:13:18;;;;;;;0.60;0.50;;;;;;;;;;5052481;28;20459;-89
2023/04/06 11:15:44;;;;;;;0.47;0.45;;;;;;;;;;5053190;28;20045;-88
2023/04/06 11:18:11;;;;;;;0.20;0.10;;;;;;;;;;5052468;28;20037;-88
2023/04/06 11:20:37;;;;;;;0.00;0.00;;;;;;;;;;5052927;28;20043;-89
2023/04/06 11:23:03;;;;;;;0.00;0.00;;;;;;;;;;5052846;28;20076;-88
2023/04/06 11:25:32;;;;;;;0.00;0.00;;;;;;;;;;5053010;28;20083;-90
2023/04/06 11:27:58;;;;;;;0.00;0.00;;;;;;;;;;5036076;28;20033;-89
2023/04/06 11:30:24;;;;;;;0.73;0.20;;;;;;;;;;5052541;28;20040;-91
2023/04/06 11:32:50;;;;;;;0.50;0.10;;;;;;;;;;5052385;28;20048;-89
2023/04/06 11:35:23;;;;;;;0.17;0.00;;;;;;;;;;5052517;28;20039;-89
2023/04/06 11:37:52;;;;;;;0.00;0.00;;;;;;;;;;5052146;28;20043;-89
2023/04/06 11:40:22;;;;;;;0.90;0.30;;;;;;;;;;5052548;28;20071;-88
2023/04/06 11:42:55;;;;;;;0.00;0.00;;;;;;;;;;5052288;28;20044;-91
2023/04/06 11:45:22;;;;;;;0.47;0.00;;;;;;;;;;5052726;28;20114;-89
2023/04/06 11:47:56;;;;;;;0.00;0.00;;;;;;;;;;5052092;28;20468;-89
2023/04/06 11:50:23;;;;;;;0.00;0.00;;;;;;;;;;5052392;28;20733;-90
2023/04/06 11:52:59;;;;;;;0.08;0.03;;;;;;;;;;5050019;28;20037;-90
2023/04/06 11:55:25;;;;;;;0.10;0.10;;;;;;;;;;5015985;28;20103;-89
2023/04/06 11:57:51;;;;;;;0.40;0.08;;;;;;;;;;4999636;28;20085;-89
2023/04/06 12:00:17;;;;;;;0.10;0.00;;;;;;;;;;4999436;28;20045;-89
2023/04/06 12:02:47;;;;;;;0.10;0.05;;;;;;;;;;5015626;28;20385;-88
2023/04/06 12:05:13;;;;;;;6.22;0.63;;;;;;;;;;5015882;28;20041;-91
2023/04/06 12:07:39;;;;;;;0.00;0.00;;;;;;;;;;4999035;28;20037;-89
2023/04/06 12:10:06;;;;;;;0.20;0.10;;;;;;;;;;5015191;28;20043;-90
2023/04/06 12:12:32;;;;;;;0.00;0.00;;;;;;;;;;5016048;28;20045;-89
2023/04/06 12:14:58;;;;;;;0.00;0.00;;;;;;;;;;5015547;28;20079;-91
2023/04/06 12:17:24;;;;;;;0.10;0.10;;;;;;;;;;5015644;28;20045;-89
2023/04/06 12:19:50;;;;;;;0.22;0.10;;;;;;;;;;4999041;28;20037;-89
2023/04/06 12:22:19;;;;;;;0.20;0.00;;;;;;;;;;5015418;28;20385;-89
2023/04/06 12:24:45;;;;;;;0.00;0.00;;;;;;;;;;5015313;28;20150;-89
2023/04/06 12:27:11;;;;;;;2.30;0.52;;;;;;;;;;5015619;28;20077;-89
2023/04/06 12:29:37;;;;;;;0.00;0.00;;;;;;;;;;5015294;28;20139;-89
2023/04/06 12:32:04;;;;;;;0.40;0.17;;;;;;;;;;5015069;28;20063;-89
2023/04/06 12:34:30;;;;;;;0.00;0.00;;;;;;;;;;5014958;28;20045;-90
2023/04/06 12:36:56;;;;;;;1.55;1.45;;;;;;;;;;5014944;28;20041;-89
2023/04/06 12:39:22;;;;;;;1.17;0.30;;;;;;;;;;4998644;28;20053;-89
2023/04/06 12:41:48;;;;;;;0.40;0.13;;;;;;;;;;5015260;28;20033;-89
2023/04/06 12:44:15;;;;;;;0.10;0.10;;;;;;;;;;5004178;28;20044;-89
2023/04/06 12:46:42;;;;;;;0.00;0.00;;;;;;;;;;5005202;28;20052;-89
2023/04/06 12:49:08;;;;;;;0.00;0.00;;;;;;;;;;5004825;28;20124;-90
2023/04/06 12:51:35;;;;;;;0.10;0.05;;;;;;;;;;5021533;28;20077;-88
2023/04/06 12:54:01;;;;;;;0.00;0.00;;;;;;;;;;5023987;28;20500;-89
2023/04/06 12:56:27;;;;;;;0.70;0.30;;;;;;;;;;5057881;28;20484;-89
2023/04/06 12:58:53;;;;;;;0.30;0.22;;;;;;;;;;5057831;28;20040;-88
2023/04/06 13:01:20;;;;;;;0.03;0.03;;;;;;;;;;5057945;28;20036;-89
2023/04/06 13:03:46;;;;;;;0.10;0.10;;;;;;;;;;5041217;28;20063;-89
2023/04/06 13:06:12;;;;;;;0.10;0.00;;;;;;;;;;5057854;28;20374;-89
2023/04/06 13:08:39;;;;;;;0.43;0.38;;;;;;;;;;5041061;28;20048;-89
2023/04/06 13:11:07;;;;;;;0.80;0.68;;;;;;;;;;5041019;28;20063;-90
2023/04/06 13:13:34;;;;;;;0.43;0.43;;;;;;;;;;5040458;28;20051;-88
2023/04/06 13:16:02;;;;;;;0.00;0.00;;;;;;;;;;5057622;28;20052;-88
2023/04/06 13:18:28;;;;;;;0.00;0.00;;;;;;;;;;5057618;28;20063;-87
2023/04/06 13:20:56;;;;;;;0.17;0.17;;;;;;;;;;5057545;28;20529;-90
2023/04/06 13:23:22;;;;;;;1.25;0.60;;;;;;;;;;5040747;28;20039;-89
2023/04/06 13:25:48;;;;;;;0.00;0.00;;;;;;;;;;5057412;28;20400;-89
2023/04/06 13:28:14;;;;;;;0.00;0.00;;;;;;;;;;5057630;28;20044;-89
2023/04/06 13:30:40;;;;;;;0.00;0.00;;;;;;;;;;5067685;28;20051;-87
2023/04/06 13:33:06;;;;;;;0.00;0.00;;;;;;;;;;5076235;28;20129;-91
2023/04/06 13:35:32;;;;;;;0.00;0.00;;;;;;;;;;5069160;28;20048;-88
2023/04/06 13:37:58;;;;;;;0.65;0.00;;;;;;;;;;5044181;28;20044;-88
2023/04/06 13:40:24;;;;;;;0.10;0.10;;;;;;;;;;5076654;28;20219;-88
2023/04/06 13:42:50;;;;;;;1.02;0.77;;;;;;;;;;5060287;28;20036;-88
2023/04/06 13:45:16;;;;;;;0.20;0.10;;;;;;;;;;5076152;28;20082;-88
2023/04/06 13:47:42;;;;;;;0.00;0.00;;;;;;;;;;5077080;28;20483;-88
2023/04/06 13:50:08;;;;;;;0.00;0.00;;;;;;;;;;5060486;28;20043;-88
2023/04/06 13:52:36;;;;;;;0.68;0.35;;;;;;;;;;5053626;28;20068;-87
2023/04/06 13:55:02;;;;;;;0.30;0.00;;;;;;;;;;5042764;28;20058;-88
2023/04/06 13:57:29;;;;;;;0.28;0.20;;;;;;;;;;5073825;28;20052;-87
2023/04/06 13:59:55;;;;;;;2.08;1.38;;;;;;;;;;5053626;28;20047;-87
2023/04/06 14:02:26;;;;;;;0.00;0.00;;;;;;;;;;5053657;28;20399;-88
2023/04/06 14:04:53;;;;;;;0.40;0.28;;;;;;;;;;5061598;28;20040;-87
2023/04/06 14:07:21;;;;;;;0.32;0.32;;;;;;;;;;5057087;28;20041;-87
2023/04/06 14:09:47;;;;;;;0.10;0.10;;;;;;;;;;5056735;28;20041;-87
2023/04/06 14:12:13;;;;;;;0.00;0.00;;;;;;;;;;5057071;28;20044;-87
2023/04/06 14:14:39;;;;;;;1.00;0.68;;;;;;;;;;5073395;28;20036;-88
2023/04/06 14:17:06;;;;;;;0.00;0.00;;;;;;;;;;5056988;28;20090;-89
2023/04/06 14:19:32;;;;;;;0.00;0.00;;;;;;;;;;5036946;28;20438;-87
2023/04/06 14:21:58;;;;;;;0.00;0.00;;;;;;;;;;5037185;28;20132;-87
2023/04/06 14:24:25;;;;;;;0.22;0.22;;;;;;;;;;5036601;28;20041;-87
2023/04/06 14:26:51;;;;;;;0.25;0.00;;;;;;;;;;5053393;28;20161;-88
2023/04/06 14:29:17;;;;;;;0.52;0.10;;;;;;;;;;5053513;28;20045;-87
2023/04/06 14:31:43;;;;;;;0.00;0.00;;;;;;;;;;5053681;28;20366;-88
2023/04/06 14:34:09;;;;;;;0.20;0.20;;;;;;;;;;5052954;28;20047;-87
2023/04/06 14:36:38;;;;;;;0.47;0.30;;;;;;;;;;5053191;28;20079;-88
2023/04/06 14:39:04;;;;;;;0.15;0.00;;;;;;;;;;5052688;28;20396;-87
2023/04/06 14:41:33;;;;;;;0.00;0.00;;;;;;;;;;5036219;28;20396;-87